Impacts METAR Board
IDs:

KEWR - Newark Intl, NJ, US

Updated at: 0700 UTC 26 Apr 2018
Potential Impact None Slight Moderate High
Time 25/19Z 25/20Z 25/21Z 25/22Z 25/23Z 26/00Z 26/01Z 26/02Z 26/03Z 26/04Z 26/05Z 26/06Z 26/07Z
Temp57 56 56 57 57 55 55 56 56 55 55 55 56
Dewpt57 56 56 56 55 54 55 55 55 54 55 55 56
Altim29.72 29.70 29.68 29.68 29.67 29.67 29.66 29.68 29.65 29.64 29.63 29.61 29.60
VIS0.75 0.75 0.75 1.5 1.5 0.75 0.5 2 3 2 1.5 1.5 1.5
CIG3 2 3 5 6 3 3 5 25 6 3 3 2
CoverOVCOVCOVCOVCOVCOVCOVCOVCOVCOVCOVCOVCOVC
FltCatLIFRLIFRLIFRIFRIFRLIFRLIFRIFRMVFRIFRLIFRLIFRLIFR
WXBRBRBRBRBRBRFGBRBR+RA BR-RA BRBRBR
WDir11090909060100100080000270
WSpd6 5 5 4 5 3 4 0 3 0 0 0 7
WGst-- -- -- -- -- -- -- -- -- -- -- -- --
Raw hourly METARs
KEWR 251851Z 11006KT 3/4SM R04R/5500VP6000FT BR OVC003 14/14 A2972 RMK AO2 SFC VIS 1 1/2 DZE12RAB12E28 SLP063 CIG 002V004 P0001 T01390139
KEWR 251951Z 09005KT 3/4SM R04R/P6000FT BR OVC002 13/13 A2970 RMK AO2 SFC VIS 1 SLP057 T01330133
KEWR 252051Z 09005KT 3/4SM R04R/P6000FT BR OVC003 13/13 A2968 RMK AO2 SFC VIS 1 3/4 RAB32E48 SLP050 P0000 60001 T01330133 56022
KEWR 252151Z 09004KT 1 1/2SM BR OVC005 14/13 A2968 RMK AO2 SFC VIS 3 SLP048 T01390133
KEWR 252251Z 06005KT 1 1/2SM BR OVC006 14/13 A2967 RMK AO2 SLP045 T01390128
KEWR 252351Z 10003KT 3/4SM R04R/P6000FT BR OVC003 13/12 A2967 RMK AO2 SLP045 60001 T01280122 10144 20128 56005
KEWR 260051Z 10004KT 1/2SM R04R/P6000FT FG OVC003 13/13 A2966 RMK AO2 SLP044 T01280128
KEWR 260151Z 00000KT 2SM BR BKN005 OVC012 13/13 A2968 RMK AO2 SLP048 T01330128
KEWR 260251Z 08003KT 3SM BR FEW006 SCT011 OVC025 13/13 A2965 RMK AO2 SLP041 T01330128 58004
KEWR 260351Z 00000KT 2SM R04R/6000VP6000FT +RA BR BKN006 OVC013 13/12 A2964 RMK AO2 RAB42 SLP037 P0006 T01280122
KEWR 260451Z 00000KT 1 1/2SM -RA BR BKN003 OVC006 13/13 A2963 RMK AO2 SFC VIS 2 1/2 SLP032 P0026 T01280128 401440117
KEWR 260551Z 00000KT 1 1/2SM BR BKN003 OVC008 13/13 A2961 RMK AO2 SFC VIS 3 RAE49 SLP026 P0001 60033 T01280128 10133 20122 58015
KEWR 260651Z 27007KT 1 1/2SM BR BKN002 OVC006 13/13 A2960 RMK AO2 SFC VIS 1 3/4 SLP024 T01330133



Page loaded:  07:55 UTC  |   12:55 AM Pacific  |   01:55 AM Mountain  |   02:55 AM Central  |   03:55 AM Eastern

 

ADVISORIES

FORECASTS

FORECASTS

OBSERVATIONS

USER TOOLS

ABOUT US